createdAt,value
2022-12-06T00:01:46.943Z,9.75
2022-12-06T00:03:57.109Z,9.68
2022-12-06T00:06:05.334Z,10.50
2022-12-06T00:08:10.486Z,10.43
2022-12-06T00:10:16.447Z,11.82
2022-12-06T00:12:21.576Z,11.75
2022-12-06T00:14:27.736Z,10.05
2022-12-06T00:16:37.823Z,11.30
2022-12-06T00:18:45.030Z,10.73
2022-12-06T00:20:50.152Z,9.57
2022-12-06T00:22:55.234Z,9.57
2022-12-06T00:25:00.358Z,10.38
2022-12-06T00:27:05.469Z,10.18
2022-12-06T00:29:14.370Z,10.23
2022-12-06T00:31:23.528Z,10.18
2022-12-06T00:33:32.059Z,9.10
2022-12-06T00:35:37.255Z,9.55
2022-12-06T00:37:42.379Z,9.63
2022-12-06T00:39:47.519Z,10.45
2022-12-06T00:41:53.050Z,9.18
2022-12-06T00:43:58.528Z,9.00
2022-12-06T00:46:04.626Z,8.68
2022-12-06T00:48:09.885Z,8.20
2022-12-06T00:50:17.914Z,7.30
2022-12-06T00:52:23.059Z,7.82
2022-12-06T00:54:28.419Z,7.15
2022-12-06T00:56:33.834Z,7.15
2022-12-06T00:58:39.052Z,6.60
2022-12-06T01:00:44.936Z,7.10
2022-12-06T01:02:50.120Z,6.05
2022-12-06T01:04:55.300Z,6.78
2022-12-06T01:07:03.763Z,6.35
2022-12-06T01:09:12.478Z,6.22
2022-12-06T01:11:19.369Z,5.93
2022-12-06T01:13:24.791Z,6.63
2022-12-06T01:15:29.759Z,3.38
2022-12-06T01:17:34.938Z,3.10
2022-12-06T01:19:39.935Z,2.85
2022-12-06T01:21:44.898Z,2.53
2022-12-06T01:23:54.320Z,1.75
2022-12-06T01:25:59.267Z,2.47
2022-12-06T01:28:04.209Z,2.38
2022-12-06T01:30:10.946Z,2.95
2022-12-06T01:32:15.919Z,3.03
2022-12-06T01:34:20.985Z,2.72
2022-12-06T01:36:28.617Z,2.40
2022-12-06T01:38:33.771Z,2.90
2022-12-06T01:40:47.722Z,3.10
2022-12-06T01:42:52.683Z,3.28
2022-12-06T01:45:01.787Z,2.70
2022-12-06T01:47:07.676Z,2.70
2022-12-06T01:49:20.184Z,2.38
2022-12-06T01:51:26.082Z,2.75
2022-12-06T01:53:31.679Z,2.47
2022-12-06T01:55:41.739Z,2.42
2022-12-06T01:57:50.798Z,2.78
2022-12-06T01:59:55.887Z,2.50
2022-12-06T02:02:01.048Z,2.50
2022-12-06T02:04:07.416Z,2.60
2022-12-06T02:06:12.524Z,2.72
2022-12-06T02:08:19.661Z,2.83
2022-12-06T02:10:25.361Z,2.78
2022-12-06T02:12:30.638Z,2.72
2022-12-06T02:14:38.222Z,2.60
2022-12-06T02:19:14.200Z,2.50
2022-12-06T02:21:35.094Z,2.47
2022-12-06T02:24:04.577Z,2.33
2022-12-06T02:26:27.219Z,2.67
2022-12-06T02:29:12.329Z,1.90
2022-12-06T02:31:28.990Z,2.05
2022-12-06T02:33:40.697Z,1.92
2022-12-06T02:35:53.601Z,1.52
2022-12-06T02:38:11.445Z,1.90
2022-12-06T02:40:23.126Z,1.80
2022-12-06T02:42:32.637Z,1.90
2022-12-06T02:44:43.013Z,1.90
2022-12-06T02:46:53.659Z,1.50
2022-12-06T02:49:02.003Z,1.90
2022-12-06T02:51:11.969Z,2.00
2022-12-06T02:53:21.650Z,1.90
2022-12-06T02:55:27.649Z,2.00
2022-12-06T02:57:43.523Z,2.03
2022-12-06T02:59:55.721Z,1.55
2022-12-06T03:02:08.912Z,1.48
2022-12-06T03:04:47.993Z,1.42
2022-12-06T03:07:19.954Z,1.58
2022-12-06T03:09:46.330Z,1.30
2022-12-06T03:12:00.318Z,1.20
2022-12-06T03:14:14.501Z,1.40
2022-12-06T03:16:29.109Z,1.50
2022-12-06T03:18:46.317Z,1.52
2022-12-06T03:20:57.518Z,1.43
2022-12-06T03:23:08.406Z,1.60
2022-12-06T03:25:14.690Z,1.38
2022-12-06T03:27:22.552Z,1.75
2022-12-06T03:29:31.031Z,1.48
2022-12-06T03:31:41.257Z,1.55
2022-12-06T03:33:56.420Z,1.45
2022-12-06T03:36:02.326Z,1.52
2022-12-06T03:38:13.396Z,1.40
2022-12-06T03:40:24.542Z,1.42
2022-12-06T03:42:30.005Z,1.48
2022-12-06T03:44:37.378Z,1.60
2022-12-06T03:46:50.405Z,1.50
2022-12-06T03:49:04.498Z,1.70
2022-12-06T03:51:13.239Z,1.80
2022-12-06T03:53:20.373Z,2.00
2022-12-06T03:55:26.171Z,1.77
2022-12-06T03:57:31.234Z,1.90
2022-12-06T03:59:36.533Z,1.77
2022-12-06T04:01:42.810Z,1.83
2022-12-06T04:03:47.846Z,2.38
2022-12-06T04:05:55.671Z,1.90
2022-12-06T04:08:01.031Z,2.15
2022-12-06T04:10:07.400Z,1.85
2022-12-06T04:12:25.051Z,1.80
2022-12-06T04:19:06.698Z,1.80
2022-12-06T04:21:26.863Z,2.00
2022-12-06T04:23:34.431Z,2.10
2022-12-06T04:25:39.817Z,2.20
2022-12-06T04:27:57.277Z,2.17
2022-12-06T04:30:14.683Z,2.30
2022-12-06T04:32:32.100Z,2.28
2022-12-06T04:34:49.560Z,2.40
2022-12-06T04:37:09.868Z,2.33
2022-12-06T04:39:19.193Z,2.35
2022-12-06T04:41:38.954Z,2.60
2022-12-06T04:43:46.615Z,2.60
2022-12-06T04:47:58.779Z,2.63
2022-12-06T04:50:04.496Z,2.90
2022-12-06T04:52:13.510Z,3.00
2022-12-06T04:54:18.871Z,2.63
2022-12-06T04:56:24.544Z,3.35
2022-12-06T04:58:29.542Z,2.50
2022-12-06T05:00:34.786Z,2.90
2022-12-06T05:02:39.827Z,2.90
2022-12-06T05:04:44.887Z,2.63
2022-12-06T05:06:50.456Z,2.88
2022-12-06T05:08:58.518Z,2.60
2022-12-06T05:11:04.020Z,2.63
2022-12-06T05:13:10.497Z,2.70
2022-12-06T05:15:16.320Z,3.25
2022-12-06T05:17:21.326Z,3.03
2022-12-06T05:19:27.370Z,3.13
2022-12-06T05:21:32.379Z,3.03
2022-12-06T05:23:38.297Z,3.20
2022-12-06T05:25:46.378Z,3.00
2022-12-06T05:29:56.075Z,3.50
2022-12-06T05:32:01.122Z,3.13
2022-12-06T05:34:06.797Z,3.28
2022-12-06T05:36:14.933Z,3.40
2022-12-06T05:38:20.414Z,3.40
2022-12-06T05:40:25.980Z,3.22
2022-12-06T05:42:33.522Z,3.55
2022-12-06T05:46:43.922Z,3.63
2022-12-06T05:48:49.702Z,3.88
2022-12-06T05:50:55.185Z,3.40
2022-12-06T05:53:03.194Z,4.07
2022-12-06T05:55:09.196Z,3.80
2022-12-06T05:57:14.183Z,3.80
2022-12-06T05:59:23.415Z,4.38
2022-12-06T06:01:28.376Z,4.05
2022-12-06T06:03:33.457Z,4.30
2022-12-06T06:05:39.739Z,4.90
2022-12-06T06:07:45.122Z,4.72
2022-12-06T06:09:50.084Z,4.55
2022-12-06T06:11:55.251Z,4.78
2022-12-06T06:14:00.263Z,5.32
2022-12-06T06:16:09.284Z,5.57
2022-12-06T06:18:14.409Z,5.13
2022-12-06T06:20:19.374Z,4.30
2022-12-06T06:22:24.816Z,5.32
2022-12-06T06:24:29.772Z,5.50
2022-12-06T06:26:35.627Z,5.55
2022-12-06T06:28:40.627Z,5.10
2022-12-06T06:30:47.098Z,6.15
2022-12-06T06:32:54.788Z,5.43
2022-12-06T06:34:59.778Z,5.28
2022-12-06T06:37:04.724Z,5.25
2022-12-06T06:39:09.727Z,5.20
2022-12-06T06:41:15.256Z,5.78
2022-12-06T06:43:23.582Z,5.18
2022-12-06T06:45:29.249Z,5.13
2022-12-06T06:47:34.307Z,5.00
2022-12-06T06:49:42.030Z,5.53
2022-12-06T06:51:48.401Z,5.22
2022-12-06T06:53:53.418Z,5.15
2022-12-06T06:55:58.550Z,5.47
2022-12-06T06:58:03.943Z,6.18
2022-12-06T07:00:12.535Z,5.57
2022-12-06T07:02:19.665Z,6.03
2022-12-06T07:04:25.290Z,6.35
2022-12-06T07:06:32.904Z,5.90
2022-12-06T07:08:37.921Z,5.82
2022-12-06T07:10:48.593Z,6.40
2022-12-06T07:12:54.201Z,5.70
2022-12-06T07:14:59.594Z,5.50
2022-12-06T07:17:05.135Z,5.28
2022-12-06T07:19:10.724Z,5.72
2022-12-06T07:21:18.826Z,5.75
2022-12-06T07:23:26.386Z,6.13
2022-12-06T07:25:32.042Z,6.15
2022-12-06T07:27:37.511Z,5.40
2022-12-06T07:29:43.069Z,5.85
2022-12-06T07:31:48.063Z,6.00
2022-12-06T07:33:56.780Z,5.53
2022-12-06T07:36:17.152Z,6.22
2022-12-06T07:38:25.258Z,5.15
2022-12-06T07:41:02.818Z,5.50
2022-12-06T07:43:08.395Z,6.30
2022-12-06T07:45:13.031Z,6.00
2022-12-06T07:47:18.163Z,5.88
2022-12-06T07:49:23.122Z,5.57
2022-12-06T07:51:28.101Z,5.65
2022-12-06T07:53:36.088Z,5.35
2022-12-06T07:57:46.985Z,5.00
2022-12-06T07:59:52.517Z,5.75
2022-12-06T08:01:57.843Z,5.40
2022-12-06T08:04:04.081Z,5.30
2022-12-06T08:06:10.415Z,5.88
2022-12-06T08:08:15.494Z,5.68
2022-12-06T08:10:23.221Z,5.07
2022-12-06T08:12:28.453Z,5.35
2022-12-06T08:14:34.485Z,5.10
2022-12-06T08:16:39.458Z,4.85
2022-12-06T08:18:44.947Z,5.35
2022-12-06T08:20:50.512Z,4.40
2022-12-06T08:22:55.464Z,4.38
2022-12-06T08:25:00.631Z,5.18
2022-12-06T08:27:08.180Z,5.05
2022-12-06T08:29:13.419Z,4.97
2022-12-06T08:31:21.855Z,4.90
2022-12-06T08:33:28.252Z,4.88
2022-12-06T08:35:33.515Z,4.82
2022-12-06T08:37:38.479Z,5.60
2022-12-06T08:39:43.627Z,4.75
2022-12-06T08:42:03.767Z,5.03
2022-12-06T08:44:14.946Z,4.68
2022-12-06T08:46:19.920Z,5.05
2022-12-06T08:48:25.291Z,5.40
2022-12-06T08:50:30.425Z,5.00
2022-12-06T08:52:35.691Z,5.70
2022-12-06T08:54:42.102Z,5.93
2022-12-06T08:56:47.413Z,5.10
2022-12-06T08:58:53.058Z,5.05
2022-12-06T09:01:01.055Z,4.57
2022-12-06T09:03:06.000Z,5.18
2022-12-06T09:05:12.414Z,5.05
2022-12-06T09:07:18.008Z,5.60
2022-12-06T09:09:23.546Z,4.95
2022-12-06T09:11:29.459Z,5.00
2022-12-06T09:13:34.571Z,4.75
2022-12-06T09:15:41.571Z,4.63
2022-12-06T09:17:49.379Z,4.88
2022-12-06T09:19:54.342Z,4.93
2022-12-06T09:21:59.365Z,4.85
2022-12-06T09:24:04.847Z,4.78
2022-12-06T09:26:10.540Z,4.80
2022-12-06T09:28:16.827Z,6.13
2022-12-06T09:30:21.837Z,8.02
2022-12-06T09:32:26.833Z,10.35
2022-12-06T09:34:34.403Z,7.55
2022-12-06T09:36:42.276Z,5.38
2022-12-06T09:41:05.805Z,5.47
2022-12-06T09:43:34.408Z,5.75
2022-12-06T09:46:12.878Z,7.00
2022-12-06T09:48:52.133Z,5.80
2022-12-06T09:51:15.029Z,13.98
2022-12-06T09:53:27.831Z,6.10
2022-12-06T09:55:50.077Z,4.90
2022-12-06T09:58:03.882Z,4.85
2022-12-06T10:00:18.993Z,4.65
2022-12-06T10:02:59.904Z,6.07
2022-12-06T10:05:36.187Z,4.90
2022-12-06T10:07:56.715Z,4.63
2022-12-06T10:10:17.633Z,4.18
2022-12-06T10:12:41.486Z,4.30
2022-12-06T10:15:27.064Z,3.85
2022-12-06T10:17:46.596Z,4.70
2022-12-06T10:20:09.410Z,4.50
2022-12-06T10:22:29.808Z,4.70
2022-12-06T10:24:52.802Z,5.45
2022-12-06T10:27:05.275Z,4.85
2022-12-06T10:29:28.834Z,4.55
2022-12-06T10:31:46.676Z,4.57
2022-12-06T10:33:58.859Z,4.93
2022-12-06T10:36:07.865Z,4.70
2022-12-06T10:38:26.651Z,4.25
2022-12-06T10:40:42.130Z,4.93
2022-12-06T10:42:54.233Z,4.82
2022-12-06T10:45:25.824Z,4.38
2022-12-06T10:47:34.809Z,4.35
2022-12-06T10:49:51.667Z,4.50
2022-12-06T10:52:05.010Z,6.83
2022-12-06T10:54:24.095Z,6.15
2022-12-06T10:56:38.319Z,6.28
2022-12-06T10:58:51.796Z,7.82
2022-12-06T11:01:02.685Z,4.95
2022-12-06T11:03:17.078Z,5.18
2022-12-06T11:05:27.977Z,4.43
2022-12-06T11:07:41.935Z,3.88
2022-12-06T11:09:51.852Z,4.00
2022-12-06T11:11:59.582Z,4.25
2022-12-06T11:14:12.309Z,4.65
2022-12-06T11:16:23.037Z,4.38
2022-12-06T11:18:32.312Z,4.75
2022-12-06T11:20:43.721Z,4.32
2022-12-06T11:22:59.554Z,4.43
2022-12-06T11:25:14.129Z,4.32
2022-12-06T11:27:32.068Z,4.50
2022-12-06T11:29:37.515Z,4.43
2022-12-06T11:31:49.184Z,4.80
2022-12-06T11:33:54.503Z,4.65
2022-12-06T11:36:01.893Z,4.07
2022-12-06T11:38:10.304Z,4.25
2022-12-06T11:40:25.895Z,7.13
2022-12-06T11:42:33.494Z,4.47
2022-12-06T11:44:49.482Z,5.13
2022-12-06T11:46:59.500Z,4.70
2022-12-06T11:49:30.459Z,5.03
2022-12-06T11:51:35.518Z,4.05
2022-12-06T11:53:47.143Z,4.40
2022-12-06T11:55:56.254Z,3.85
2022-12-06T11:58:10.206Z,4.30
2022-12-06T12:00:21.569Z,4.00
2022-12-06T12:02:34.952Z,3.65
2022-12-06T12:04:43.634Z,3.75
2022-12-06T12:06:50.116Z,3.83
2022-12-06T12:09:07.738Z,4.28
2022-12-06T12:11:23.902Z,3.15
2022-12-06T12:13:48.534Z,3.67
2022-12-06T12:15:55.578Z,3.97
2022-12-06T12:18:02.608Z,3.63
2022-12-06T12:20:12.301Z,3.92
2022-12-06T12:22:26.685Z,3.78
2022-12-06T12:27:53.032Z,3.20
2022-12-06T12:30:35.425Z,4.00
2022-12-06T12:32:40.443Z,3.42
2022-12-06T12:34:45.389Z,4.55
2022-12-06T12:36:53.188Z,5.32
2022-12-06T12:41:24.772Z,3.15
2022-12-06T12:43:33.786Z,3.30
2022-12-06T12:45:43.117Z,3.20
2022-12-06T12:48:00.285Z,2.92
2022-12-06T12:50:20.361Z,3.40
2022-12-06T12:52:32.745Z,3.50
2022-12-06T12:54:40.085Z,2.92
2022-12-06T12:56:45.054Z,3.07
2022-12-06T12:58:54.504Z,3.92
2022-12-06T13:01:09.059Z,3.90
2022-12-06T13:03:49.500Z,3.63
2022-12-06T13:05:47.708Z,3.20
2022-12-06T13:07:58.443Z,4.05
2022-12-06T13:10:08.181Z,3.63
2022-12-06T13:12:21.815Z,3.60
2022-12-06T13:14:28.682Z,3.90
2022-12-06T13:16:39.090Z,3.40
2022-12-06T13:18:48.942Z,3.50
2022-12-06T13:20:58.185Z,3.65
2022-12-06T13:23:09.846Z,3.80
2022-12-06T13:25:15.031Z,3.72
2022-12-06T13:27:25.252Z,3.67
2022-12-06T13:29:36.406Z,3.95
2022-12-06T13:31:44.714Z,3.47
2022-12-06T13:33:55.233Z,4.00
2022-12-06T13:36:04.634Z,3.72
2022-12-06T13:38:28.489Z,3.90
2022-12-06T13:40:50.780Z,4.00
2022-12-06T13:42:56.122Z,3.63
2022-12-06T13:45:03.956Z,3.65
2022-12-06T13:49:49.794Z,4.05
2022-12-06T13:51:55.280Z,4.45
2022-12-06T13:54:36.119Z,3.92
2022-12-06T13:56:43.146Z,4.15
2022-12-06T13:58:58.629Z,3.78
2022-12-06T14:01:03.646Z,4.05
2022-12-06T14:03:56.889Z,3.88
2022-12-06T14:06:13.960Z,3.63
2022-12-06T14:08:20.263Z,4.20
2022-12-06T14:10:25.334Z,3.78
2022-12-06T14:12:31.996Z,3.63
2022-12-06T14:14:37.695Z,3.35
2022-12-06T14:16:46.435Z,3.13
2022-12-06T14:18:54.440Z,3.55
2022-12-06T14:21:01.904Z,4.05
2022-12-06T14:23:24.863Z,3.90
2022-12-06T14:25:32.437Z,3.83
2022-12-06T14:27:45.829Z,4.25
2022-12-06T14:30:06.875Z,3.42
2022-12-06T14:32:12.506Z,3.47
2022-12-06T14:34:30.337Z,3.15
2022-12-06T14:38:42.459Z,3.80
2022-12-06T14:41:00.942Z,3.13
2022-12-06T14:43:17.544Z,3.30
2022-12-06T14:45:22.922Z,3.35
2022-12-06T14:47:28.768Z,3.38
2022-12-06T14:49:50.723Z,3.55
2022-12-06T14:51:55.863Z,3.22
2022-12-06T14:54:18.478Z,3.22
2022-12-06T14:56:29.747Z,3.40
2022-12-06T14:58:37.430Z,3.05
2022-12-06T15:03:30.882Z,3.47
2022-12-06T15:05:42.146Z,3.90
2022-12-06T15:07:47.121Z,3.92
2022-12-06T15:09:52.109Z,3.95
2022-12-06T15:12:36.208Z,3.70
2022-12-06T15:14:52.417Z,3.47
2022-12-06T15:17:05.545Z,4.05
2022-12-06T15:19:14.919Z,3.53
2022-12-06T15:21:22.487Z,3.38
2022-12-06T15:23:39.391Z,3.13
2022-12-06T15:25:44.359Z,3.10
2022-12-06T15:27:49.374Z,3.33
2022-12-06T15:29:54.755Z,3.63
2022-12-06T15:31:59.802Z,3.90
2022-12-06T15:34:05.533Z,4.35
2022-12-06T15:36:12.764Z,4.68
2022-12-06T15:40:26.680Z,5.50
2022-12-06T15:42:31.679Z,5.28
2022-12-06T15:44:37.005Z,5.65
2022-12-06T15:46:42.059Z,6.20
2022-12-06T15:48:47.630Z,6.28
2022-12-06T15:50:53.047Z,6.40
2022-12-06T15:52:57.968Z,7.13
2022-12-06T15:55:05.509Z,6.93
2022-12-06T15:57:10.705Z,7.45
2022-12-06T15:59:16.566Z,7.43
2022-12-06T16:01:25.587Z,7.43
2022-12-06T16:03:30.683Z,7.07
2022-12-06T16:05:35.704Z,7.72
2022-12-06T16:07:40.948Z,7.00
2022-12-06T16:09:46.271Z,5.95
2022-12-06T16:11:54.236Z,6.05
2022-12-06T16:16:05.364Z,5.43
2022-12-06T16:18:10.442Z,5.32
2022-12-06T16:20:30.256Z,4.78
2022-12-06T16:22:47.806Z,5.53
2022-12-06T16:24:54.150Z,5.40
2022-12-06T16:27:01.737Z,6.00
2022-12-06T16:31:17.298Z,5.05
2022-12-06T16:33:25.302Z,5.80
2022-12-06T16:37:35.111Z,6.38
2022-12-06T16:39:40.108Z,6.35
2022-12-06T16:41:45.071Z,6.00
2022-12-06T16:43:53.318Z,5.30
2022-12-06T16:46:04.898Z,5.60
2022-12-06T16:48:16.964Z,5.72
2022-12-06T16:50:28.147Z,6.60
2022-12-06T16:52:33.877Z,8.77
2022-12-06T16:54:41.010Z,8.07
2022-12-06T16:56:46.955Z,8.00
2022-12-06T16:58:54.846Z,8.50
2022-12-06T17:01:04.624Z,7.20
2022-12-06T17:03:09.669Z,6.80
2022-12-06T17:05:23.018Z,6.35
2022-12-06T17:07:28.095Z,5.70
2022-12-06T17:09:33.088Z,5.57
2022-12-06T17:11:51.347Z,5.43
2022-12-06T17:13:58.920Z,5.60
2022-12-06T17:16:04.097Z,9.25
2022-12-06T17:18:09.347Z,7.53
2022-12-06T17:20:17.410Z,10.10
2022-12-06T17:24:29.229Z,8.55
2022-12-06T17:26:35.382Z,7.07
2022-12-06T17:28:40.445Z,5.97
2022-12-06T17:30:51.265Z,5.97
2022-12-06T17:32:56.381Z,5.68
2022-12-06T17:35:01.622Z,6.35
2022-12-06T17:37:06.944Z,5.90
2022-12-06T17:39:13.714Z,6.20
2022-12-06T17:41:32.050Z,6.30
2022-12-06T17:43:37.862Z,6.43
2022-12-06T17:45:42.809Z,6.72
2022-12-06T17:47:50.379Z,6.45
2022-12-06T17:49:56.491Z,6.50
2022-12-06T17:52:01.548Z,5.70
2022-12-06T17:54:09.361Z,6.22
2022-12-06T17:56:28.850Z,5.68
2022-12-06T17:58:33.839Z,5.60
2022-12-06T18:00:39.046Z,5.63
2022-12-06T18:02:44.280Z,5.63
2022-12-06T18:04:53.064Z,5.72
2022-12-06T18:06:58.174Z,5.50
2022-12-06T18:09:03.978Z,5.45
2022-12-06T18:11:09.153Z,5.72
2022-12-06T18:13:14.108Z,5.82
2022-12-06T18:15:31.735Z,6.43
2022-12-06T18:17:37.259Z,5.82
2022-12-06T18:19:46.866Z,5.40
2022-12-06T18:21:55.251Z,5.10
2022-12-06T18:24:20.958Z,5.13
2022-12-06T18:26:27.869Z,5.13
2022-12-06T18:28:33.227Z,4.72
2022-12-06T18:30:38.503Z,4.63
2022-12-06T18:32:43.507Z,4.45
2022-12-06T18:34:48.485Z,4.13
2022-12-06T18:36:56.029Z,5.03
2022-12-06T18:39:02.523Z,4.60
2022-12-06T18:41:09.779Z,5.03
2022-12-06T18:43:14.931Z,4.72
2022-12-06T18:45:20.130Z,4.63
2022-12-06T18:47:28.132Z,4.40
2022-12-06T18:49:33.448Z,4.95
2022-12-06T18:51:39.352Z,5.10
2022-12-06T18:53:47.560Z,5.38
2022-12-06T18:55:53.147Z,4.85
2022-12-06T18:58:00.280Z,4.82
2022-12-06T19:00:06.880Z,5.07
2022-12-06T19:02:13.809Z,5.10
2022-12-06T19:04:19.542Z,5.28
2022-12-06T19:06:26.902Z,5.20
2022-12-06T19:08:31.997Z,5.45
2022-12-06T19:10:40.035Z,4.45
2022-12-06T19:12:46.272Z,4.93
2022-12-06T19:14:51.451Z,5.22
2022-12-06T19:16:56.707Z,4.60
2022-12-06T19:19:05.354Z,5.38
2022-12-06T19:21:10.835Z,5.28
2022-12-06T19:23:15.914Z,4.93
2022-12-06T19:25:22.129Z,5.55
2022-12-06T19:27:32.217Z,5.57
2022-12-06T19:29:37.956Z,5.25
2022-12-06T19:31:43.199Z,5.40
2022-12-06T19:33:49.142Z,5.97
2022-12-06T19:36:01.053Z,5.15
2022-12-06T19:38:08.703Z,5.82
2022-12-06T19:40:17.272Z,5.70
2022-12-06T19:42:34.858Z,5.18
2022-12-06T19:44:45.500Z,6.10
2022-12-06T19:46:50.998Z,5.55
2022-12-06T19:48:58.581Z,5.60
2022-12-06T19:51:03.647Z,6.07
2022-12-06T19:53:09.095Z,5.47
2022-12-06T19:55:14.194Z,6.18
2022-12-06T19:57:22.243Z,5.43
2022-12-06T19:59:32.255Z,5.70
2022-12-06T20:01:41.344Z,5.93
2022-12-06T20:03:47.220Z,5.03
2022-12-06T20:05:52.418Z,6.18
2022-12-06T20:07:58.970Z,6.00
2022-12-06T20:10:09.966Z,6.30
2022-12-06T20:12:15.940Z,6.10
2022-12-06T20:14:22.139Z,7.07
2022-12-06T20:16:29.744Z,6.57
2022-12-06T20:18:37.448Z,7.22
2022-12-06T20:20:42.709Z,6.78
2022-12-06T20:22:47.904Z,6.65
2022-12-06T20:24:53.271Z,6.38
2022-12-06T20:26:58.992Z,6.80
2022-12-06T20:29:04.601Z,6.47
2022-12-06T20:31:14.877Z,6.40
2022-12-06T20:33:20.230Z,6.75
2022-12-06T20:35:31.797Z,6.63
2022-12-06T20:37:38.199Z,7.30
2022-12-06T20:39:45.758Z,7.40
2022-12-06T20:44:00.156Z,7.03
2022-12-06T20:46:13.180Z,7.65
2022-12-06T20:48:20.166Z,6.93
2022-12-06T20:50:29.850Z,6.93
2022-12-06T20:52:35.423Z,7.30
2022-12-06T20:54:41.189Z,7.32
2022-12-06T20:56:47.199Z,7.45
2022-12-06T20:58:56.967Z,8.10
2022-12-06T21:01:04.883Z,7.70
2022-12-06T21:05:15.021Z,8.88
2022-12-06T21:07:23.661Z,14.75
2022-12-06T21:09:30.231Z,14.98
2022-12-06T21:11:35.850Z,13.20
2022-12-06T21:13:41.696Z,13.57
2022-12-06T21:15:46.967Z,14.15
2022-12-06T21:17:52.332Z,10.18
2022-12-06T21:19:57.452Z,10.85
2022-12-06T21:22:07.907Z,11.55
2022-12-06T21:24:21.954Z,9.25
2022-12-06T21:26:27.127Z,9.27
2022-12-06T21:28:32.613Z,10.25
2022-12-06T21:30:39.249Z,10.43
2022-12-06T21:32:44.550Z,10.52
2022-12-06T21:34:50.192Z,10.85
2022-12-06T21:36:55.352Z,11.43
2022-12-06T21:39:01.290Z,10.70
2022-12-06T21:41:19.397Z,8.23
2022-12-06T21:43:25.027Z,9.50
2022-12-06T21:45:33.681Z,9.35
2022-12-06T21:47:38.806Z,9.27
2022-12-06T21:49:44.273Z,8.23
2022-12-06T21:51:49.365Z,7.68
2022-12-06T21:53:56.580Z,7.63
2022-12-06T21:56:01.873Z,7.50
2022-12-06T21:58:09.519Z,7.97
2022-12-06T22:00:17.022Z,7.93
2022-12-06T22:02:24.083Z,7.68
2022-12-06T22:04:29.471Z,8.05
2022-12-06T22:06:37.481Z,7.80
2022-12-06T22:08:45.201Z,8.68
2022-12-06T22:10:53.619Z,7.90
2022-12-06T22:12:58.689Z,7.55
2022-12-06T22:15:06.997Z,8.10
2022-12-06T22:17:12.764Z,7.82
2022-12-06T22:19:17.719Z,7.93
2022-12-06T22:21:26.041Z,7.85
2022-12-06T22:23:32.521Z,8.68
2022-12-06T22:25:42.172Z,8.38
2022-12-06T22:27:47.178Z,8.43
2022-12-06T22:29:54.061Z,8.00
2022-12-06T22:32:02.174Z,8.10
2022-12-06T22:34:07.710Z,8.20
2022-12-06T22:36:14.123Z,8.63
2022-12-06T22:38:19.205Z,8.38
2022-12-06T22:40:24.252Z,7.78
2022-12-06T22:42:29.635Z,8.65
2022-12-06T22:44:38.041Z,8.68
2022-12-06T22:46:43.625Z,8.43
2022-12-06T22:48:54.063Z,8.18
2022-12-06T22:51:08.711Z,8.75
2022-12-06T22:53:13.688Z,8.07
2022-12-06T22:55:19.214Z,8.75
2022-12-06T22:57:24.130Z,9.70
2022-12-06T22:59:29.123Z,9.38
2022-12-06T23:01:37.593Z,9.05
2022-12-06T23:03:43.663Z,9.00
2022-12-06T23:05:58.499Z,9.27
2022-12-06T23:08:03.580Z,9.20
2022-12-06T23:10:10.783Z,9.82
2022-12-06T23:12:15.713Z,9.52
2022-12-06T23:14:20.769Z,9.00
2022-12-06T23:16:28.927Z,8.90
2022-12-06T23:18:34.591Z,8.68
2022-12-06T23:20:39.509Z,9.18
2022-12-06T23:22:47.055Z,9.07
2022-12-06T23:26:58.606Z,8.57
2022-12-06T23:29:04.244Z,8.57
2022-12-06T23:31:12.628Z,8.85
2022-12-06T23:33:22.507Z,9.02
2022-12-06T23:35:27.830Z,8.23
2022-12-06T23:37:32.778Z,8.82
2022-12-06T23:39:40.566Z,8.63
2022-12-06T23:41:45.786Z,8.75
2022-12-06T23:43:51.556Z,8.55
2022-12-06T23:45:59.322Z,8.40
2022-12-06T23:48:07.543Z,8.90
2022-12-06T23:50:13.960Z,8.68
2022-12-06T23:52:18.911Z,8.73
2022-12-06T23:54:24.236Z,8.57
2022-12-06T23:56:35.802Z,8.65
2022-12-06T23:58:43.042Z,9.18
